createdAt,value
2023-05-12T00:01:57.752Z,10.40
2023-05-12T00:04:30.723Z,10.30
2023-05-12T00:07:06.118Z,11.50
2023-05-12T00:09:39.104Z,10.82
2023-05-12T00:12:13.676Z,10.48
2023-05-12T00:14:46.637Z,10.90
2023-05-12T00:17:19.630Z,12.02
2023-05-12T00:19:52.652Z,11.20
2023-05-12T00:22:26.772Z,11.55
2023-05-12T00:24:59.774Z,13.77
2023-05-12T00:27:34.076Z,12.52
2023-05-12T00:30:08.963Z,11.88
2023-05-12T00:32:41.940Z,13.18
2023-05-12T00:35:15.984Z,12.88
2023-05-12T00:37:48.978Z,12.25
2023-05-12T00:40:22.076Z,11.45
2023-05-12T00:42:56.411Z,11.95
2023-05-12T00:45:30.390Z,10.45
2023-05-12T00:48:04.698Z,11.25
2023-05-12T00:50:37.790Z,10.10
2023-05-12T00:53:11.177Z,9.88
2023-05-12T00:55:45.034Z,10.25
2023-05-12T00:58:19.314Z,11.48
2023-05-12T01:00:52.308Z,12.27
2023-05-12T01:03:25.692Z,12.25
2023-05-12T01:06:09.267Z,11.63
2023-05-12T01:08:42.519Z,12.98
2023-05-12T01:11:15.669Z,13.30
2023-05-12T01:13:49.982Z,14.15
2023-05-12T01:16:28.694Z,12.57
2023-05-12T01:19:07.156Z,13.85
2023-05-12T01:21:40.660Z,17.27
2023-05-12T01:24:15.816Z,15.50
2023-05-12T01:26:50.220Z,15.80
2023-05-12T01:29:23.630Z,13.90
2023-05-12T01:31:57.013Z,15.95
2023-05-12T01:34:30.053Z,14.98
2023-05-12T01:37:03.033Z,14.73
2023-05-12T01:39:36.342Z,15.88
2023-05-12T01:42:10.793Z,15.10
2023-05-12T01:44:43.796Z,14.77
2023-05-12T01:47:16.810Z,15.18
2023-05-12T01:49:49.741Z,12.32
2023-05-12T01:52:22.742Z,14.45
2023-05-12T01:54:55.717Z,14.85
2023-05-12T01:57:30.145Z,14.38
2023-05-12T02:00:03.194Z,15.25
2023-05-12T02:02:36.338Z,15.45
2023-05-12T02:05:10.365Z,14.40
2023-05-12T02:07:43.298Z,12.55
2023-05-12T02:10:16.378Z,13.43
2023-05-12T02:12:50.872Z,13.48
2023-05-12T02:15:24.546Z,12.80
2023-05-12T02:17:58.536Z,13.52
2023-05-12T02:20:31.526Z,12.32
2023-05-12T02:23:04.443Z,10.60
2023-05-12T02:25:37.737Z,11.85
2023-05-12T02:28:12.079Z,11.57
2023-05-12T02:30:48.628Z,13.60
2023-05-12T02:33:23.179Z,12.05
2023-05-12T02:35:56.158Z,12.15
2023-05-12T02:38:29.314Z,12.75
2023-05-12T02:41:02.318Z,12.57
2023-05-12T02:43:36.614Z,12.10
2023-05-12T02:46:09.597Z,11.93
2023-05-12T02:48:42.585Z,10.65
2023-05-12T02:51:15.643Z,12.30
2023-05-12T02:53:49.251Z,11.95
2023-05-12T02:56:22.527Z,12.93
2023-05-12T02:58:56.869Z,11.65
2023-05-12T03:01:29.909Z,11.93
2023-05-12T03:04:02.950Z,11.95
2023-05-12T03:06:35.937Z,11.30
2023-05-12T03:09:08.919Z,13.48
2023-05-12T03:11:41.896Z,11.32
2023-05-12T03:14:16.276Z,11.77
2023-05-12T03:16:49.290Z,11.50
2023-05-12T03:19:22.313Z,11.75
2023-05-12T03:21:55.609Z,13.40
2023-05-12T03:24:29.116Z,14.32
2023-05-12T03:27:02.309Z,12.43
2023-05-12T03:29:36.578Z,11.95
2023-05-12T03:32:09.646Z,12.73
2023-05-12T03:34:42.605Z,13.05
2023-05-12T03:37:16.161Z,13.48
2023-05-12T03:39:49.265Z,14.10
2023-05-12T03:42:22.297Z,13.65
2023-05-12T03:44:56.573Z,13.60
2023-05-12T03:47:29.585Z,13.25
2023-05-12T03:50:02.681Z,14.70
2023-05-12T03:52:38.309Z,13.23
2023-05-12T03:55:11.483Z,12.82
2023-05-12T03:57:44.428Z,14.25
2023-05-12T04:00:20.558Z,13.48
2023-05-12T04:02:53.807Z,13.40
2023-05-12T04:05:27.087Z,13.20
2023-05-12T04:08:00.112Z,13.38
2023-05-12T04:10:33.047Z,12.82
2023-05-12T04:13:06.005Z,12.25
2023-05-12T04:15:40.705Z,12.55
2023-05-12T04:18:14.240Z,11.77
2023-05-12T04:20:47.145Z,11.75
2023-05-12T04:23:20.791Z,11.55
2023-05-12T04:25:53.732Z,11.07
2023-05-12T04:28:26.650Z,13.77
2023-05-12T04:31:05.341Z,14.25
2023-05-12T04:33:38.254Z,12.48
2023-05-12T04:36:13.632Z,13.13
2023-05-12T04:38:46.588Z,12.82
2023-05-12T04:41:19.538Z,12.93
2023-05-12T04:46:29.705Z,14.23
2023-05-12T04:49:02.748Z,13.82
2023-05-12T04:51:41.986Z,12.13
2023-05-12T04:54:14.975Z,12.80
2023-05-12T04:56:47.965Z,13.35
2023-05-12T04:59:20.901Z,13.38
2023-05-12T05:01:55.353Z,12.15
2023-05-12T05:04:28.476Z,11.63
2023-05-12T05:07:01.775Z,12.43
2023-05-12T05:09:36.413Z,12.57
2023-05-12T05:12:10.490Z,13.15
2023-05-12T05:14:45.067Z,14.35
2023-05-12T05:17:21.212Z,15.55
2023-05-12T05:19:58.832Z,14.52
2023-05-12T05:22:32.990Z,15.13
2023-05-12T05:25:08.327Z,14.70
2023-05-12T05:27:41.532Z,14.43
2023-05-12T05:30:15.140Z,14.38
2023-05-12T05:32:49.633Z,15.50
2023-05-12T05:35:22.927Z,15.75
2023-05-12T05:37:56.183Z,14.80
2023-05-12T05:40:38.525Z,14.77
2023-05-12T05:43:18.633Z,13.65
2023-05-12T05:45:52.171Z,14.93
2023-05-12T05:48:27.349Z,14.63
2023-05-12T05:51:00.310Z,13.50
2023-05-12T05:53:33.513Z,14.15
2023-05-12T05:56:07.321Z,14.35
2023-05-12T05:58:40.418Z,13.13
2023-05-12T06:01:13.677Z,14.18
2023-05-12T06:03:48.185Z,11.65
2023-05-12T06:06:21.415Z,13.10
2023-05-12T06:08:55.982Z,12.68
2023-05-12T06:11:29.186Z,11.82
2023-05-12T06:14:02.121Z,11.68
2023-05-12T06:16:35.271Z,11.93
2023-05-12T06:19:09.916Z,12.23
2023-05-12T06:21:43.668Z,12.63
2023-05-12T06:24:16.772Z,11.73
2023-05-12T06:26:49.864Z,12.43
2023-05-12T06:29:23.082Z,11.32
2023-05-12T06:31:56.278Z,11.05
2023-05-12T06:34:30.747Z,11.05
2023-05-12T06:37:03.906Z,10.85
2023-05-12T06:39:36.978Z,10.02
2023-05-12T06:42:11.459Z,8.70
2023-05-12T06:44:45.566Z,9.70
2023-05-12T06:47:18.525Z,9.52
2023-05-12T06:49:52.824Z,9.23
2023-05-12T06:52:25.856Z,9.82
2023-05-12T06:54:58.782Z,9.25
2023-05-12T06:57:31.749Z,8.80
2023-05-12T07:00:05.288Z,8.52
2023-05-12T07:02:38.250Z,8.93
2023-05-12T07:05:13.016Z,9.63
2023-05-12T07:07:46.560Z,8.35
2023-05-12T07:10:20.902Z,8.65
2023-05-12T07:12:54.082Z,8.50
2023-05-12T07:15:27.042Z,8.18
2023-05-12T07:18:00.108Z,7.10
2023-05-12T07:20:34.472Z,7.90
2023-05-12T07:23:07.450Z,6.65
2023-05-12T07:25:40.627Z,6.63
2023-05-12T07:28:13.675Z,6.38
2023-05-12T07:30:47.257Z,6.75
2023-05-12T07:33:20.664Z,5.72
2023-05-12T07:35:54.953Z,5.90
2023-05-12T07:38:28.810Z,5.53
2023-05-12T07:41:02.032Z,5.10
2023-05-12T07:43:35.060Z,6.07
2023-05-12T07:46:08.018Z,5.50
2023-05-12T07:48:40.968Z,6.18
2023-05-12T07:51:15.319Z,5.50
2023-05-12T07:53:48.390Z,5.43
2023-05-12T07:56:21.622Z,5.10
2023-05-12T07:58:55.251Z,5.88
2023-05-12T08:01:28.405Z,5.70
2023-05-12T08:04:01.544Z,5.65
2023-05-12T08:06:36.491Z,5.78
2023-05-12T08:09:09.426Z,5.18
2023-05-12T08:11:45.408Z,4.55
2023-05-12T08:14:19.679Z,5.22
2023-05-12T08:16:52.857Z,4.75
2023-05-12T08:19:26.065Z,5.45
2023-05-12T08:22:00.465Z,5.15
2023-05-12T08:24:33.524Z,4.95
2023-05-12T08:27:06.830Z,4.57
2023-05-12T08:29:39.939Z,5.07
2023-05-12T08:32:13.137Z,4.70
2023-05-12T08:34:46.260Z,4.68
2023-05-12T08:37:20.875Z,5.65
2023-05-12T08:39:53.956Z,5.65
2023-05-12T08:42:45.360Z,4.50
2023-05-12T08:45:18.661Z,4.32
2023-05-12T08:47:52.474Z,4.57
2023-05-12T08:50:26.875Z,4.13
2023-05-12T08:53:01.645Z,4.97
2023-05-12T08:55:36.086Z,3.78
2023-05-12T08:58:09.948Z,4.97
2023-05-12T09:00:43.277Z,4.65
2023-05-12T09:03:16.517Z,4.30
2023-05-12T09:05:50.012Z,4.15
2023-05-12T09:08:25.082Z,4.32
2023-05-12T09:10:58.617Z,3.50
2023-05-12T09:13:40.942Z,3.47
2023-05-12T09:16:16.244Z,3.65
2023-05-12T09:18:53.560Z,4.18
2023-05-12T09:21:28.005Z,4.57
2023-05-12T09:24:06.154Z,3.80
2023-05-12T09:26:48.238Z,4.53
2023-05-12T09:29:31.367Z,4.43
2023-05-12T09:32:05.960Z,5.10
2023-05-12T09:34:41.334Z,4.35
2023-05-12T09:37:15.919Z,5.20
2023-05-12T09:40:01.423Z,5.53
2023-05-12T09:42:36.673Z,6.22
2023-05-12T09:45:10.826Z,6.25
2023-05-12T09:47:44.589Z,6.50
2023-05-12T09:50:19.058Z,7.22
2023-05-12T09:52:52.846Z,6.90
2023-05-12T09:55:27.126Z,8.27
2023-05-12T09:58:02.084Z,8.05
2023-05-12T10:00:55.101Z,7.57
2023-05-12T10:03:34.539Z,8.23
2023-05-12T10:06:12.209Z,7.30
2023-05-12T10:08:51.402Z,6.65
2023-05-12T10:11:26.954Z,7.03
2023-05-12T10:14:00.841Z,6.30
2023-05-12T10:16:35.210Z,5.15
2023-05-12T10:19:09.927Z,5.22
2023-05-12T10:21:45.983Z,4.95
2023-05-12T10:24:19.137Z,5.57
2023-05-12T10:26:55.595Z,5.57
2023-05-12T10:29:31.099Z,5.50
2023-05-12T10:32:04.320Z,5.35
2023-05-12T10:34:38.597Z,5.03
2023-05-12T10:37:12.604Z,5.32
2023-05-12T10:39:52.202Z,5.78
2023-05-12T10:42:26.910Z,5.82
2023-05-12T10:44:59.901Z,5.55
2023-05-12T10:47:38.789Z,5.28
2023-05-12T10:50:13.639Z,5.68
2023-05-12T10:52:54.931Z,4.82
2023-05-12T10:55:36.585Z,5.43
2023-05-12T10:58:14.568Z,5.50
2023-05-12T11:00:51.824Z,4.93
2023-05-12T11:03:27.165Z,6.15
2023-05-12T11:06:02.898Z,5.22
2023-05-12T11:08:39.876Z,5.35
2023-05-12T11:11:13.748Z,5.97
2023-05-12T11:13:48.425Z,5.60
2023-05-12T11:16:22.265Z,5.80
2023-05-12T11:19:03.833Z,5.53
2023-05-12T11:21:37.976Z,5.57
2023-05-12T11:24:14.754Z,5.00
2023-05-12T11:26:51.665Z,5.50
2023-05-12T11:29:26.469Z,6.40
2023-05-12T11:32:00.445Z,6.03
2023-05-12T11:34:33.850Z,5.40
2023-05-12T11:37:07.607Z,5.50
2023-05-12T11:39:42.279Z,5.47
2023-05-12T11:42:18.513Z,5.95
2023-05-12T11:44:55.461Z,4.85
2023-05-12T11:47:28.771Z,4.93
2023-05-12T11:50:04.452Z,5.20
2023-05-12T11:52:37.446Z,4.90
2023-05-12T11:55:11.396Z,3.80
2023-05-12T11:57:44.374Z,3.85
2023-05-12T12:00:30.055Z,4.10
2023-05-12T12:03:11.643Z,4.55
2023-05-12T12:05:47.234Z,6.20
2023-05-12T12:08:20.425Z,6.93
2023-05-12T12:10:53.445Z,7.72
2023-05-12T12:13:27.512Z,8.52
2023-05-12T12:16:01.883Z,8.35
2023-05-12T12:18:34.986Z,8.70
2023-05-12T12:21:08.028Z,9.18
2023-05-12T12:23:50.422Z,9.57
2023-05-12T12:26:24.524Z,9.00
2023-05-12T12:28:57.553Z,9.85
2023-05-12T12:31:31.984Z,10.52
2023-05-12T12:34:05.329Z,10.27
2023-05-12T12:36:38.630Z,10.95
2023-05-12T12:39:11.620Z,10.20
2023-05-12T12:41:44.648Z,10.15
2023-05-12T12:44:18.290Z,10.68
2023-05-12T12:46:52.748Z,10.88
2023-05-12T12:49:25.897Z,9.40
2023-05-12T12:51:58.997Z,11.07
2023-05-12T12:54:32.044Z,9.73
2023-05-12T12:57:05.616Z,9.98
2023-05-12T12:59:38.591Z,9.90
2023-05-12T13:02:13.038Z,10.73
2023-05-12T13:04:46.191Z,9.73
2023-05-12T13:07:19.189Z,10.23
2023-05-12T13:09:52.173Z,9.27
2023-05-12T13:12:25.315Z,10.50
2023-05-12T13:15:00.192Z,9.63
2023-05-12T13:17:34.700Z,10.32
2023-05-12T13:20:09.686Z,9.10
2023-05-12T13:22:43.738Z,8.80
2023-05-12T13:25:16.743Z,9.57
2023-05-12T13:27:49.842Z,9.57
2023-05-12T13:30:25.050Z,9.13
2023-05-12T13:33:00.207Z,9.75
2023-05-12T13:35:33.540Z,10.00
2023-05-12T13:38:06.687Z,9.88
2023-05-12T13:40:39.760Z,9.93
2023-05-12T13:43:13.038Z,9.40
2023-05-12T13:45:46.250Z,9.40
2023-05-12T13:48:20.783Z,9.98
2023-05-12T13:50:53.849Z,9.60
2023-05-12T13:53:26.854Z,10.38
2023-05-12T13:55:59.849Z,9.45
2023-05-12T13:58:32.899Z,11.38
2023-05-12T14:01:08.532Z,11.77
2023-05-12T14:03:43.515Z,9.68
2023-05-12T14:06:16.507Z,9.63
2023-05-12T14:08:49.504Z,11.63
2023-05-12T14:11:22.957Z,11.32
2023-05-12T14:13:56.077Z,10.25
2023-05-12T14:16:29.527Z,10.23
2023-05-12T14:19:03.966Z,9.40
2023-05-12T14:21:37.039Z,8.95
2023-05-12T14:24:10.434Z,9.80
2023-05-12T14:26:43.468Z,7.97
2023-05-12T14:29:16.416Z,9.20
2023-05-12T14:31:49.526Z,7.57
2023-05-12T14:34:24.352Z,15.32
2023-05-12T14:36:57.365Z,8.32
2023-05-12T14:39:30.398Z,6.95
2023-05-12T14:42:04.189Z,8.23
2023-05-12T14:44:37.493Z,7.75
2023-05-12T14:47:10.635Z,7.43
2023-05-12T14:49:45.778Z,6.93
2023-05-12T14:52:18.827Z,7.93
2023-05-12T14:54:51.847Z,7.95
2023-05-12T14:57:24.814Z,6.88
2023-05-12T14:59:58.731Z,6.95
2023-05-12T15:02:31.946Z,6.72
2023-05-12T15:05:08.400Z,6.68
2023-05-12T15:07:41.552Z,7.32
2023-05-12T15:10:14.530Z,6.68
2023-05-12T15:12:47.530Z,7.45
2023-05-12T15:15:20.732Z,7.55
2023-05-12T15:17:53.988Z,6.90
2023-05-12T15:20:28.319Z,7.20
2023-05-12T15:23:01.698Z,8.52
2023-05-12T15:25:34.691Z,7.43
2023-05-12T15:28:08.420Z,8.10
2023-05-12T15:30:41.420Z,8.52
2023-05-12T15:33:14.417Z,7.90
2023-05-12T15:35:48.885Z,7.55
2023-05-12T15:38:21.923Z,8.25
2023-05-12T15:40:54.914Z,7.78
2023-05-12T15:43:27.923Z,7.13
2023-05-12T15:46:00.993Z,6.65
2023-05-12T15:48:34.075Z,6.68
2023-05-12T15:51:08.531Z,6.35
2023-05-12T15:53:41.563Z,6.72
2023-05-12T15:56:14.521Z,6.13
2023-05-12T15:58:47.538Z,6.65
2023-05-12T16:01:20.549Z,7.32
2023-05-12T16:03:54.925Z,5.70
2023-05-12T16:06:29.533Z,6.28
2023-05-12T16:09:03.193Z,6.28
2023-05-12T16:11:36.176Z,5.32
2023-05-12T16:14:09.762Z,6.15
2023-05-12T16:16:48.125Z,6.43
2023-05-12T16:19:21.549Z,5.80
2023-05-12T16:21:58.263Z,7.28
2023-05-12T16:24:31.261Z,6.30
2023-05-12T16:27:04.502Z,6.80
2023-05-12T16:29:37.525Z,6.72
2023-05-12T16:32:10.668Z,7.05
2023-05-12T16:34:43.917Z,6.95
2023-05-12T16:37:18.239Z,6.55
2023-05-12T16:39:51.291Z,6.68
2023-05-12T16:42:24.836Z,7.05
2023-05-12T16:44:57.863Z,6.65
2023-05-12T16:47:31.349Z,6.43
2023-05-12T16:50:05.454Z,6.13
2023-05-12T16:52:39.833Z,6.53
2023-05-12T16:55:13.219Z,6.38
2023-05-12T16:57:46.254Z,6.22
2023-05-12T17:00:20.020Z,5.60
2023-05-12T17:02:53.264Z,6.53
2023-05-12T17:05:26.449Z,6.20
2023-05-12T17:08:00.767Z,6.65
2023-05-12T17:10:33.757Z,6.97
2023-05-12T17:13:06.778Z,6.70
2023-05-12T17:15:40.917Z,6.63
2023-05-12T17:18:14.061Z,6.13
2023-05-12T17:20:47.120Z,5.03
2023-05-12T17:23:21.754Z,4.50
2023-05-12T17:25:55.224Z,4.55
2023-05-12T17:28:28.222Z,4.20
2023-05-12T17:31:01.345Z,4.20
2023-05-12T17:33:34.438Z,4.72
2023-05-12T17:36:12.811Z,4.30
2023-05-12T17:38:47.855Z,3.95
2023-05-12T17:41:20.926Z,3.67
2023-05-12T17:43:53.902Z,3.47
2023-05-12T17:46:26.877Z,3.47
2023-05-12T17:48:59.905Z,3.53
2023-05-12T17:51:33.173Z,3.78
2023-05-12T17:54:07.949Z,3.95
2023-05-12T17:56:41.284Z,3.58
2023-05-12T17:59:14.439Z,2.90
2023-05-12T18:01:47.410Z,3.40
2023-05-12T18:04:20.611Z,3.60
2023-05-12T18:06:55.016Z,3.72
2023-05-12T18:09:30.343Z,3.05
2023-05-12T18:12:03.327Z,3.30
2023-05-12T18:14:36.397Z,3.22
2023-05-12T18:17:09.742Z,3.30
2023-05-12T18:19:42.811Z,3.15
2023-05-12T18:22:17.500Z,3.40
2023-05-12T18:24:51.833Z,3.28
2023-05-12T18:27:24.818Z,3.10
2023-05-12T18:29:57.831Z,3.67
2023-05-12T18:32:31.186Z,3.40
2023-05-12T18:35:05.389Z,3.80
2023-05-12T18:37:38.628Z,3.00
2023-05-12T18:40:13.655Z,2.97
2023-05-12T18:42:46.671Z,4.22
2023-05-12T18:45:20.195Z,3.35
2023-05-12T18:47:53.465Z,3.50
2023-05-12T18:50:26.928Z,3.28
2023-05-12T18:52:59.924Z,3.67
2023-05-12T18:55:34.244Z,3.20
2023-05-12T18:58:07.262Z,3.50
2023-05-12T19:00:40.433Z,3.13
2023-05-12T19:03:13.504Z,3.38
2023-05-12T19:05:48.785Z,3.38
2023-05-12T19:08:22.103Z,3.25
2023-05-12T19:10:56.450Z,3.28
2023-05-12T19:13:29.542Z,3.30
2023-05-12T19:16:02.582Z,3.28
2023-05-12T19:18:35.624Z,3.20
2023-05-12T19:21:09.224Z,3.58
2023-05-12T19:23:42.575Z,3.60
2023-05-12T19:26:16.872Z,3.95
2023-05-12T19:28:49.825Z,3.67
2023-05-12T19:31:22.899Z,3.25
2023-05-12T19:33:55.969Z,3.72
2023-05-12T19:36:29.271Z,3.25
2023-05-12T19:39:02.308Z,3.17
2023-05-12T19:41:36.664Z,3.42
2023-05-12T19:44:09.662Z,3.28
2023-05-12T19:46:43.500Z,3.42
2023-05-12T19:49:16.640Z,3.60
2023-05-12T19:51:51.217Z,3.47
2023-05-12T19:54:24.290Z,3.42
2023-05-12T19:56:58.608Z,3.58
2023-05-12T19:59:31.556Z,3.53
2023-05-12T20:02:05.362Z,3.65
2023-05-12T20:04:38.337Z,3.75
2023-05-12T20:07:11.437Z,3.30
2023-05-12T20:09:44.365Z,4.07
2023-05-12T20:12:18.696Z,3.20
2023-05-12T20:14:52.678Z,3.72
2023-05-12T20:17:25.660Z,3.45
2023-05-12T20:19:58.633Z,3.10
2023-05-12T20:22:31.728Z,3.45
2023-05-12T20:25:05.238Z,4.05
2023-05-12T20:27:39.491Z,3.88
2023-05-12T20:30:13.897Z,4.07
2023-05-12T20:32:48.769Z,3.97
2023-05-12T20:35:22.055Z,4.15
2023-05-12T20:37:55.608Z,4.07
2023-05-12T20:40:28.809Z,4.40
2023-05-12T20:43:03.664Z,4.00
2023-05-12T20:45:37.816Z,4.40
2023-05-12T20:48:10.940Z,4.20
2023-05-12T20:50:44.101Z,4.50
2023-05-12T20:53:17.353Z,4.43
2023-05-12T20:55:50.450Z,4.13
2023-05-12T20:58:24.915Z,4.63
2023-05-12T21:00:58.970Z,4.82
2023-05-12T21:03:32.538Z,4.53
2023-05-12T21:06:06.951Z,4.05
2023-05-12T21:08:39.937Z,6.50
2023-05-12T21:11:17.073Z,5.65
2023-05-12T21:13:51.357Z,5.15
2023-05-12T21:16:24.354Z,4.82
2023-05-12T21:18:57.588Z,4.68
2023-05-12T21:21:30.568Z,5.35
2023-05-12T21:24:03.578Z,4.60
2023-05-12T21:26:36.667Z,4.80
2023-05-12T21:29:11.124Z,5.20
2023-05-12T21:31:44.180Z,5.38
2023-05-12T21:34:17.294Z,5.32
2023-05-12T21:36:50.367Z,5.63
2023-05-12T21:39:23.704Z,4.75
2023-05-12T21:41:56.700Z,5.07
2023-05-12T21:44:30.981Z,4.72
2023-05-12T21:47:04.374Z,5.57
2023-05-12T21:49:37.474Z,4.53
2023-05-12T21:52:10.589Z,4.85
2023-05-12T21:54:43.561Z,4.60
2023-05-12T21:57:16.795Z,5.63
2023-05-12T21:59:51.330Z,5.20
2023-05-12T22:02:24.702Z,4.82
2023-05-12T22:04:57.830Z,4.57
2023-05-12T22:07:31.378Z,5.05
2023-05-12T22:10:04.730Z,4.60
2023-05-12T22:12:37.984Z,5.68
2023-05-12T22:15:12.822Z,5.50
2023-05-12T22:17:47.648Z,5.85
2023-05-12T22:20:23.043Z,4.85
2023-05-12T22:22:56.193Z,5.63
2023-05-12T22:25:29.292Z,5.55
2023-05-12T22:28:02.237Z,4.53
2023-05-12T22:30:36.620Z,5.78
2023-05-12T22:33:09.604Z,5.45
2023-05-12T22:35:42.611Z,5.15
2023-05-12T22:38:15.749Z,5.88
2023-05-12T22:40:48.722Z,5.85
2023-05-12T22:43:21.826Z,6.20
2023-05-12T22:45:56.674Z,5.75
2023-05-12T22:48:32.113Z,6.03
2023-05-12T22:51:08.978Z,6.90
2023-05-12T22:53:42.199Z,6.20
2023-05-12T22:56:15.210Z,5.95
2023-05-12T22:58:48.173Z,6.03
2023-05-12T23:01:22.515Z,5.55
2023-05-12T23:03:55.843Z,6.68
2023-05-12T23:06:28.786Z,6.05
2023-05-12T23:09:01.961Z,6.28
2023-05-12T23:11:34.933Z,6.25
2023-05-12T23:14:08.777Z,5.82
2023-05-12T23:16:43.078Z,6.13
2023-05-12T23:19:16.648Z,5.93
2023-05-12T23:21:49.959Z,6.40
2023-05-12T23:24:22.956Z,5.70
2023-05-12T23:26:55.868Z,5.75
2023-05-12T23:29:28.812Z,4.68
2023-05-12T23:32:03.180Z,6.40
2023-05-12T23:34:36.361Z,5.85
2023-05-12T23:37:09.505Z,6.00
2023-05-12T23:39:42.444Z,6.15
2023-05-12T23:42:15.381Z,6.18
2023-05-12T23:44:48.358Z,5.82
2023-05-12T23:47:22.996Z,6.10
2023-05-12T23:49:56.110Z,6.13
2023-05-12T23:52:29.087Z,6.30
2023-05-12T23:55:02.055Z,6.53
2023-05-12T23:57:34.995Z,6.45
